Time;durP1;ratioP1;P1;durP2;ratioP2;P2;SDS_P1;SDS_P2;PMS_P1;PMS_P2;Temp;Humidity;BMP_temperature;BMP_pressure;BME280_temperature;BME280_humidity;BME280_pressure;Samples;Min_cycle;Max_cycle;Signal;HPM_P1;HPM_P2
2022/07/03 00:00:42;;;;;;;;;;;23.70;80.30;;;;;;5004579;28;20078;-96
2022/07/03 00:03:08;;;;;;;;;;;23.70;80.20;;;;;;4986317;28;19992;-96
2022/07/03 00:05:34;;;;;;;;;;;23.60;79.70;;;;;;5004869;28;19972;-96
2022/07/03 00:08:00;;;;;;;;;;;23.50;81.20;;;;;;5005606;28;19994;-97
2022/07/03 00:10:26;;;;;;;;;;;23.40;80.50;;;;;;5011849;28;19946;-96
2022/07/03 00:12:51;;;;;;;;;;;23.50;80.60;;;;;;4994586;28;19947;-96
2022/07/03 00:15:20;;;;;;;;;;;23.50;79.10;;;;;;4994734;28;20022;-97
2022/07/03 00:17:46;;;;;;;;;;;23.60;80.00;;;;;;4994726;28;19954;-96
2022/07/03 00:20:12;;;;;;;;;;;23.50;80.00;;;;;;4995104;28;19950;-96
2022/07/03 00:22:42;;;;;;;;;;;23.30;80.80;;;;;;5012194;28;19944;-96
2022/07/03 00:25:10;;;;;;;;;;;23.30;81.40;;;;;;4995389;28;19951;-96
2022/07/03 00:27:37;;;;;;;;;;;23.30;81.10;;;;;;4995371;28;19956;-96
2022/07/03 00:30:03;;;;;;;;;;;23.30;81.20;;;;;;5011134;28;20029;-96
2022/07/03 00:32:33;;;;;;;;;;;23.30;81.20;;;;;;5011296;28;19991;-96
2022/07/03 00:34:58;;;;;;;;;;;23.30;82.20;;;;;;4994392;28;19955;-96
2022/07/03 00:37:24;;;;;;;;;;;23.30;82.30;;;;;;5010915;28;19981;-97
2022/07/03 00:39:50;;;;;;;;;;;23.20;82.50;;;;;;4994146;28;19968;-96
2022/07/03 00:42:17;;;;;;;;;;;23.20;82.20;;;;;;4995766;28;19969;-96
2022/07/03 00:44:48;;;;;;;;;;;23.30;81.80;;;;;;4995670;28;19989;-96
2022/07/03 00:47:14;;;;;;;;;;;23.30;81.90;;;;;;5012402;28;19952;-96
2022/07/03 00:49:41;;;;;;;;;;;23.30;81.80;;;;;;5012129;28;19951;-96
2022/07/03 00:52:11;;;;;;;;;;;23.30;82.20;;;;;;4994679;28;20005;-96
2022/07/03 00:54:39;;;;;;;;;;;23.10;82.70;;;;;;5011967;28;19937;-96
2022/07/03 00:57:05;;;;;;;;;;;23.00;83.00;;;;;;4995109;28;20384;-96
2022/07/03 00:59:31;;;;;;;;;;;22.90;83.10;;;;;;5012783;28;19980;-96
2022/07/03 01:02:02;;;;;;;;;;;22.80;83.40;;;;;;5013899;28;19989;-96
2022/07/03 01:04:28;;;;;;;;;;;22.80;83.70;;;;;;5013936;28;19957;-96
2022/07/03 01:07:00;;;;;;;;;;;22.70;84.00;;;;;;5030361;28;20005;-96
2022/07/03 01:09:40;;;;;;;;;;;22.60;84.20;;;;;;5025662;28;20406;-96
2022/07/03 01:12:09;;;;;;;;;;;22.50;84.30;;;;;;5025196;28;19946;-96
2022/07/03 01:14:37;;;;;;;;;;;22.50;84.40;;;;;;5007021;28;19940;-96
2022/07/03 01:17:04;;;;;;;;;;;22.40;84.50;;;;;;5025096;28;19947;-96
2022/07/03 01:19:33;;;;;;;;;;;22.40;84.70;;;;;;5006731;28;19943;-96
2022/07/03 01:22:18;;;;;;;;;;;22.40;84.90;;;;;;5029948;28;19942;-96
2022/07/03 01:24:56;;;;;;;;;;;22.30;85.20;;;;;;5013293;28;20054;-96
2022/07/03 01:27:42;;;;;;;;;;;22.30;85.20;;;;;;5031160;28;20008;-96
2022/07/03 01:30:10;;;;;;;;;;;22.30;85.10;;;;;;4987240;28;19951;-96
2022/07/03 01:32:43;;;;;;;;;;;22.30;84.90;;;;;;5013335;28;19950;-96
2022/07/03 01:35:10;;;;;;;;;;;22.40;84.70;;;;;;5031543;28;19953;-96
2022/07/03 01:37:38;;;;;;;;;;;22.40;84.60;;;;;;5013523;28;19949;-96
2022/07/03 01:40:04;;;;;;;;;;;22.40;84.20;;;;;;5030029;28;19963;-96
2022/07/03 01:42:32;;;;;;;;;;;22.50;83.50;;;;;;5030029;28;19974;-96
2022/07/03 01:44:59;;;;;;;;;;;22.60;83.10;;;;;;5013094;28;19944;-96
2022/07/03 01:47:25;;;;;;;;;;;22.60;83.30;;;;;;5011579;28;19942;-96
2022/07/03 01:49:51;;;;;;;;;;;22.70;82.00;;;;;;5028906;28;19941;-96
2022/07/03 01:52:17;;;;;;;;;;;22.60;81.90;;;;;;5028985;28;20465;-96
2022/07/03 01:54:44;;;;;;;;;;;22.70;82.50;;;;;;5011023;28;19952;-96
2022/07/03 01:57:10;;;;;;;;;;;22.80;82.20;;;;;;5029048;28;19943;-96
2022/07/03 01:59:36;;;;;;;;;;;22.70;82.20;;;;;;5029255;28;19982;-96
2022/07/03 02:02:01;;;;;;;;;;;22.70;82.50;;;;;;5012691;28;19952;-96
2022/07/03 02:04:31;;;;;;;;;;;22.60;82.20;;;;;;5012496;28;19946;-96
2022/07/03 02:07:12;;;;;;;;;;;22.60;82.50;;;;;;5012124;28;19947;-96
2022/07/03 02:09:58;;;;;;;;;;;22.60;82.30;;;;;;5011829;28;19954;-96
2022/07/03 02:12:27;;;;;;;;;;;22.50;82.40;;;;;;5011834;28;20003;-96
2022/07/03 02:14:57;;;;;;;;;;;22.40;82.20;;;;;;5012505;28;19959;-96
2022/07/03 02:17:24;;;;;;;;;;;22.40;82.30;;;;;;5011502;28;20049;-96
2022/07/03 02:19:55;;;;;;;;;;;22.40;82.20;;;;;;5029509;28;19958;-96
2022/07/03 02:22:44;;;;;;;;;;;22.40;82.10;;;;;;5026820;28;19948;-96
2022/07/03 02:25:18;;;;;;;;;;;22.40;81.90;;;;;;5009397;28;19943;-96
2022/07/03 02:27:47;;;;;;;;;;;22.30;81.70;;;;;;5021484;28;19971;-95
2022/07/03 02:30:13;;;;;;;;;;;22.30;81.90;;;;;;5023578;28;19948;-96
2022/07/03 02:32:49;;;;;;;;;;;22.30;81.30;;;;;;5022790;28;19939;-95
2022/07/03 02:35:21;;;;;;;;;;;22.20;81.70;;;;;;5023659;28;19946;-96
2022/07/03 02:38:01;;;;;;;;;;;22.20;81.90;;;;;;5024495;28;19943;-96
2022/07/03 02:40:42;;;;;;;;;;;22.20;82.40;;;;;;5026055;28;19941;-96
2022/07/03 02:43:18;;;;;;;;;;;22.10;82.50;;;;;;5010198;28;19940;-96
2022/07/03 02:46:48;;;;;;;;;;;22.10;82.40;;;;;;5010527;28;19976;-96
2022/07/03 02:48:50;;;;;;;;;;;22.20;82.70;;;;;;5028195;28;19952;-96
2022/07/03 02:51:20;;;;;;;;;;;22.20;83.00;;;;;;5011420;28;19950;-96
2022/07/03 02:53:51;;;;;;;;;;;22.20;82.70;;;;;;5029060;28;20462;-96
2022/07/03 02:56:27;;;;;;;;;;;22.10;82.80;;;;;;5011748;28;19945;-96
2022/07/03 02:58:58;;;;;;;;;;;22.10;81.80;;;;;;5028946;28;20026;-96
2022/07/03 03:01:30;;;;;;;;;;;22.10;82.60;;;;;;5012364;28;19978;-96
2022/07/03 03:04:08;;;;;;;;;;;22.10;82.50;;;;;;5029742;28;19937;-96
2022/07/03 03:06:35;;;;;;;;;;;22.00;82.60;;;;;;5026408;28;19941;-95
2022/07/03 03:09:02;;;;;;;;;;;22.00;82.50;;;;;;5025975;28;19965;-96
2022/07/03 03:11:48;;;;;;;;;;;21.90;82.50;;;;;;5008743;28;19954;-96
2022/07/03 03:14:19;;;;;;;;;;;21.90;82.70;;;;;;5025050;28;19966;-96
2022/07/03 03:16:50;;;;;;;;;;;21.90;82.50;;;;;;5025870;28;19943;-96
2022/07/03 03:19:19;;;;;;;;;;;21.90;82.50;;;;;;5009544;28;19969;-96
2022/07/03 03:21:55;;;;;;;;;;;21.80;82.50;;;;;;5026294;28;19937;-96
2022/07/03 03:24:22;;;;;;;;;;;21.80;82.50;;;;;;5026179;28;19947;-96
2022/07/03 03:26:47;;;;;;;;;;;21.80;82.60;;;;;;5025693;28;19959;-96
2022/07/03 03:29:13;;;;;;;;;;;21.90;82.50;;;;;;5008297;28;19950;-96
2022/07/03 03:31:39;;;;;;;;;;;21.90;81.70;;;;;;5007490;28;19977;-96
2022/07/03 03:34:05;;;;;;;;;;;22.00;82.10;;;;;;5007600;28;19969;-96
2022/07/03 03:36:31;;;;;;;;;;;22.00;81.70;;;;;;5025356;28;19958;-95
2022/07/03 03:38:57;;;;;;;;;;;22.00;81.60;;;;;;5023751;28;19966;-96
2022/07/03 03:41:23;;;;;;;;;;;22.00;81.70;;;;;;5021999;28;19952;-96
2022/07/03 03:43:48;;;;;;;;;;;21.90;81.80;;;;;;5021134;28;19943;-96
2022/07/03 03:46:14;;;;;;;;;;;21.80;82.50;;;;;;5003727;28;20396;-96
2022/07/03 03:48:41;;;;;;;;;;;21.70;83.00;;;;;;5022201;28;19989;-96
2022/07/03 03:51:09;;;;;;;;;;;21.60;83.20;;;;;;5022240;28;19978;-96
2022/07/03 03:53:35;;;;;;;;;;;21.70;83.60;;;;;;5023440;28;20302;-96
2022/07/03 03:56:02;;;;;;;;;;;21.80;82.70;;;;;;5006167;28;19941;-96
2022/07/03 03:58:31;;;;;;;;;;;21.80;82.50;;;;;;5023668;28;19987;-96
2022/07/03 04:00:58;;;;;;;;;;;21.90;83.10;;;;;;5024256;28;19936;-96
2022/07/03 04:03:27;;;;;;;;;;;21.90;83.00;;;;;;5024488;28;19971;-96
2022/07/03 04:05:53;;;;;;;;;;;21.80;83.00;;;;;;5024205;28;19943;-96
2022/07/03 04:08:20;;;;;;;;;;;21.80;82.90;;;;;;5006558;28;19944;-96
2022/07/03 04:10:45;;;;;;;;;;;21.80;83.20;;;;;;5006733;28;19942;-96
2022/07/03 04:13:11;;;;;;;;;;;21.80;83.40;;;;;;5006795;28;20036;-96
2022/07/03 04:15:37;;;;;;;;;;;21.80;82.80;;;;;;5007080;28;19995;-96
2022/07/03 04:18:03;;;;;;;;;;;21.90;83.30;;;;;;5024553;28;19953;-96
2022/07/03 04:20:30;;;;;;;;;;;22.00;83.20;;;;;;5025250;28;19946;-96
2022/07/03 04:22:56;;;;;;;;;;;22.00;83.20;;;;;;5025034;28;19974;-96
2022/07/03 04:25:22;;;;;;;;;;;22.00;83.10;;;;;;5007110;28;19974;-96
2022/07/03 04:27:48;;;;;;;;;;;22.00;83.20;;;;;;5025074;28;19947;-96
2022/07/03 04:30:14;;;;;;;;;;;22.00;82.50;;;;;;5007271;28;19951;-96
2022/07/03 04:32:40;;;;;;;;;;;22.00;83.10;;;;;;5025286;28;20351;-96
2022/07/03 04:35:06;;;;;;;;;;;22.10;83.00;;;;;;5007077;28;19947;-96
2022/07/03 04:37:31;;;;;;;;;;;22.10;82.10;;;;;;5024515;28;19940;-96
2022/07/03 04:39:57;;;;;;;;;;;22.20;81.60;;;;;;5024027;28;19971;-96
2022/07/03 04:42:23;;;;;;;;;;;22.20;81.10;;;;;;5023458;28;19956;-96
2022/07/03 04:44:48;;;;;;;;;;;22.30;81.20;;;;;;5023847;28;19943;-96
2022/07/03 04:47:14;;;;;;;;;;;22.30;82.80;;;;;;5024001;28;19943;-96
2022/07/03 04:49:40;;;;;;;;;;;22.30;81.60;;;;;;5024509;28;19980;-96
2022/07/03 04:52:06;;;;;;;;;;;22.50;81.80;;;;;;5024467;28;20306;-96
2022/07/03 04:54:32;;;;;;;;;;;22.60;80.10;;;;;;5023963;28;19939;-96
2022/07/03 04:56:57;;;;;;;;;;;22.80;81.40;;;;;;5023591;28;20366;-96
2022/07/03 04:59:23;;;;;;;;;;;22.80;81.30;;;;;;4992211;28;19990;-96
2022/07/03 05:01:49;;;;;;;;;;;22.80;80.30;;;;;;5008715;28;19941;-96
2022/07/03 05:04:18;;;;;;;;;;;22.90;79.30;;;;;;4990364;28;19970;-96
2022/07/03 05:06:43;;;;;;;;;;;23.00;78.70;;;;;;5007371;28;20393;-96
2022/07/03 05:09:09;;;;;;;;;;;23.00;78.30;;;;;;5006653;28;19946;-96
2022/07/03 05:11:35;;;;;;;;;;;23.10;78.30;;;;;;4990273;28;20019;-96
2022/07/03 05:14:02;;;;;;;;;;;23.20;78.40;;;;;;4989300;28;19943;-96
2022/07/03 05:16:27;;;;;;;;;;;23.30;78.40;;;;;;4989938;28;19981;-96
2022/07/03 05:18:53;;;;;;;;;;;23.30;78.80;;;;;;4989288;28;19971;-96
2022/07/03 05:21:19;;;;;;;;;;;23.30;78.00;;;;;;5007545;28;19944;-96
2022/07/03 05:23:44;;;;;;;;;;;23.40;77.40;;;;;;5006503;28;19945;-96
2022/07/03 05:26:10;;;;;;;;;;;23.50;77.10;;;;;;5006908;28;19964;-96
2022/07/03 05:28:35;;;;;;;;;;;23.60;76.70;;;;;;4989109;28;19941;-96
2022/07/03 05:31:01;;;;;;;;;;;23.70;76.30;;;;;;5006879;28;19938;-96
2022/07/03 05:33:27;;;;;;;;;;;23.70;76.50;;;;;;5006239;28;19943;-96
2022/07/03 05:35:54;;;;;;;;;;;23.80;76.40;;;;;;4987679;28;20311;-96
2022/07/03 05:41:04;;;;;;;;;;;24.10;75.70;;;;;;5001353;28;19998;-96
2022/07/03 05:43:30;;;;;;;;;;;24.30;73.00;;;;;;5002234;28;19944;-96
2022/07/03 05:45:55;;;;;;;;;;;24.50;72.90;;;;;;5002761;28;19941;-95
2022/07/03 05:48:21;;;;;;;;;;;24.70;71.80;;;;;;5003869;28;20307;-96
2022/07/03 05:50:46;;;;;;;;;;;24.80;71.40;;;;;;5003181;28;20001;-96
2022/07/03 05:53:12;;;;;;;;;;;24.90;70.70;;;;;;5005813;28;19982;-96
2022/07/03 05:55:38;;;;;;;;;;;25.00;71.10;;;;;;5005200;28;19941;-96
2022/07/03 05:58:03;;;;;;;;;;;25.00;71.10;;;;;;4988287;28;20048;-96
2022/07/03 06:00:29;;;;;;;;;;;25.10;70.80;;;;;;4988609;28;19954;-96
2022/07/03 06:02:55;;;;;;;;;;;25.10;70.70;;;;;;5007095;28;19946;-95
2022/07/03 06:05:20;;;;;;;;;;;25.20;70.00;;;;;;4989372;28;20001;-96
2022/07/03 06:07:46;;;;;;;;;;;25.30;69.40;;;;;;4990215;28;19941;-96
2022/07/03 06:10:12;;;;;;;;;;;25.30;69.50;;;;;;4989949;28;19954;-96
2022/07/03 06:12:37;;;;;;;;;;;25.30;69.30;;;;;;4989538;28;19986;-96
2022/07/03 06:15:03;;;;;;;;;;;25.40;69.00;;;;;;4988893;28;19946;-96
2022/07/03 06:17:29;;;;;;;;;;;25.50;67.50;;;;;;5006636;28;19945;-96
2022/07/03 06:19:55;;;;;;;;;;;25.70;66.10;;;;;;5007236;28;20022;-96
2022/07/03 06:22:20;;;;;;;;;;;25.80;66.20;;;;;;5007474;28;19937;-96
2022/07/03 06:24:46;;;;;;;;;;;25.80;65.80;;;;;;5007565;28;19942;-96
2022/07/03 06:27:12;;;;;;;;;;;25.90;65.50;;;;;;5007973;28;19960;-96
2022/07/03 06:29:37;;;;;;;;;;;26.00;64.30;;;;;;5008077;28;19950;-96
2022/07/03 06:32:03;;;;;;;;;;;26.20;63.40;;;;;;4989943;28;19988;-96
2022/07/03 06:34:29;;;;;;;;;;;26.20;62.60;;;;;;5005689;28;19940;-96
2022/07/03 06:36:54;;;;;;;;;;;26.30;63.00;;;;;;5006436;28;20415;-96
2022/07/03 06:39:20;;;;;;;;;;;26.40;62.90;;;;;;4986784;28;20340;-96
2022/07/03 06:41:46;;;;;;;;;;;26.60;62.00;;;;;;5003117;28;19949;-96
2022/07/03 06:44:11;;;;;;;;;;;26.70;60.80;;;;;;5003708;28;19944;-96
2022/07/03 06:46:37;;;;;;;;;;;26.70;60.10;;;;;;4984263;28;19944;-96
2022/07/03 06:49:03;;;;;;;;;;;26.80;59.70;;;;;;5004409;28;20042;-96
2022/07/03 06:51:28;;;;;;;;;;;26.90;59.60;;;;;;5004814;28;19943;-96
2022/07/03 06:53:54;;;;;;;;;;;27.00;59.30;;;;;;4988505;28;19944;-96
2022/07/03 06:56:20;;;;;;;;;;;27.00;59.20;;;;;;4988896;28;19943;-96
2022/07/03 06:58:45;;;;;;;;;;;27.00;59.30;;;;;;5006157;28;19976;-96
2022/07/03 07:01:11;;;;;;;;;;;27.10;59.20;;;;;;5006693;28;19947;-96
2022/07/03 07:03:37;;;;;;;;;;;27.10;59.40;;;;;;5006151;28;20071;-96
2022/07/03 07:06:02;;;;;;;;;;;27.20;59.10;;;;;;5006794;28;19954;-96
2022/07/03 07:08:28;;;;;;;;;;;27.20;58.30;;;;;;5003910;28;19939;-96
2022/07/03 07:10:53;;;;;;;;;;;27.20;57.90;;;;;;4987950;28;20007;-96
2022/07/03 07:13:19;;;;;;;;;;;27.30;58.90;;;;;;4987780;28;19995;-96
2022/07/03 07:15:45;;;;;;;;;;;27.30;57.90;;;;;;4987801;28;19951;-96
2022/07/03 07:18:10;;;;;;;;;;;27.40;56.60;;;;;;5005853;28;19952;-96
2022/07/03 07:20:36;;;;;;;;;;;27.50;56.60;;;;;;5004908;28;19941;-96
2022/07/03 07:23:02;;;;;;;;;;;27.50;56.60;;;;;;5004320;28;20415;-96
2022/07/03 07:25:27;;;;;;;;;;;27.60;56.20;;;;;;5005806;28;19954;-96
2022/07/03 07:27:53;;;;;;;;;;;27.60;54.90;;;;;;5005777;28;19942;-96
2022/07/03 07:30:19;;;;;;;;;;;27.60;55.30;;;;;;5005894;28;19975;-96
2022/07/03 07:32:44;;;;;;;;;;;27.70;56.10;;;;;;5004767;28;19939;-96
2022/07/03 07:35:10;;;;;;;;;;;27.70;54.80;;;;;;4988162;28;19944;-96
2022/07/03 07:37:36;;;;;;;;;;;27.80;55.40;;;;;;4984045;28;19978;-96
2022/07/03 07:40:02;;;;;;;;;;;27.80;55.40;;;;;;5001651;28;20031;-96
2022/07/03 07:42:28;;;;;;;;;;;27.90;54.90;;;;;;4985003;28;20002;-96
2022/07/03 07:44:53;;;;;;;;;;;28.00;55.60;;;;;;4984440;28;20378;-96
2022/07/03 07:47:19;;;;;;;;;;;28.10;55.30;;;;;;5004084;28;20406;-96
2022/07/03 07:49:44;;;;;;;;;;;28.20;54.90;;;;;;5006227;28;19937;-96
2022/07/03 07:52:10;;;;;;;;;;;28.30;53.80;;;;;;5004506;28;19943;-96
2022/07/03 07:54:36;;;;;;;;;;;28.30;53.30;;;;;;5004510;28;19940;-96
2022/07/03 07:57:01;;;;;;;;;;;28.30;54.00;;;;;;5004292;28;19952;-96
2022/07/03 07:59:27;;;;;;;;;;;28.40;53.90;;;;;;5003971;23;19986;-96
2022/07/03 08:07:21;;;;;;;;;;;28.60;55.80;;;;;;5006708;28;19949;-96
2022/07/03 08:09:47;;;;;;;;;;;28.60;56.40;;;;;;4989040;28;19950;-96
2022/07/03 08:12:12;;;;;;;;;;;28.70;54.30;;;;;;5006422;28;19944;-96
2022/07/03 08:14:38;;;;;;;;;;;28.70;55.60;;;;;;5007497;28;19956;-96
2022/07/03 08:17:04;;;;;;;;;;;28.70;55.20;;;;;;4990271;28;19952;-96
2022/07/03 08:19:30;;;;;;;;;;;28.80;53.90;;;;;;5010129;28;19968;-96
2022/07/03 08:21:56;;;;;;;;;;;28.80;54.60;;;;;;5010716;28;20055;-96
2022/07/03 08:24:22;;;;;;;;;;;29.00;55.40;;;;;;4994328;28;19941;-96
2022/07/03 08:26:47;;;;;;;;;;;29.10;55.10;;;;;;4995852;28;19940;-96
2022/07/03 08:29:13;;;;;;;;;;;29.10;51.50;;;;;;4992541;28;19946;-96
2022/07/03 08:31:38;;;;;;;;;;;29.10;53.50;;;;;;5010038;28;19936;-96
2022/07/03 08:34:04;;;;;;;;;;;29.10;52.80;;;;;;4990642;28;19941;-96
2022/07/03 08:36:30;;;;;;;;;;;29.10;53.70;;;;;;5009297;28;19945;-96
2022/07/03 08:38:56;;;;;;;;;;;29.10;51.00;;;;;;4990744;28;19998;-96
2022/07/03 08:41:22;;;;;;;;;;;29.20;50.30;;;;;;5006194;28;19945;-96
2022/07/03 08:43:50;;;;;;;;;;;29.30;50.70;;;;;;5005181;28;19983;-96
2022/07/03 08:46:15;;;;;;;;;;;29.30;48.90;;;;;;5004153;28;19960;-96
2022/07/03 08:48:42;;;;;;;;;;;29.30;48.80;;;;;;5007077;28;20008;-96
2022/07/03 08:51:36;;;;;;;;;;;29.40;51.40;;;;;;5005135;28;19940;-96
2022/07/03 08:54:04;;;;;;;;;;;29.40;49.70;;;;;;5004638;28;20037;-96
2022/07/03 08:56:30;;;;;;;;;;;29.50;49.90;;;;;;5005545;28;20041;-96
2022/07/03 08:58:57;;;;;;;;;;;29.50;50.80;;;;;;5007841;28;20043;-96
2022/07/03 09:01:22;;;;;;;;;;;29.60;50.50;;;;;;5006734;28;19946;-96
2022/07/03 09:03:48;;;;;;;;;;;29.60;54.20;;;;;;5006491;28;19945;-96
2022/07/03 09:06:14;;;;;;;;;;;29.70;53.00;;;;;;5006480;28;19946;-96
2022/07/03 09:08:40;;;;;;;;;;;29.70;50.40;;;;;;4988074;28;19940;-96
2022/07/03 09:11:06;;;;;;;;;;;29.70;51.10;;;;;;5006344;28;19943;-96
2022/07/03 09:13:32;;;;;;;;;;;29.80;51.40;;;;;;5005249;28;20317;-96
2022/07/03 09:15:58;;;;;;;;;;;29.80;53.50;;;;;;4987951;28;20385;-96
2022/07/03 09:18:37;;;;;;;;;;;29.90;50.80;;;;;;5007971;28;20063;-96
2022/07/03 09:21:03;;;;;;;;;;;30.00;53.30;;;;;;5009242;28;19944;-96
2022/07/03 09:23:34;;;;;;;;;;;30.10;52.30;;;;;;5010141;28;20452;-96
2022/07/03 09:26:03;;;;;;;;;;;30.10;51.70;;;;;;4993234;28;19974;-96
2022/07/03 09:28:43;;;;;;;;;;;30.20;49.80;;;;;;5008868;28;19997;-96
2022/07/03 09:31:09;;;;;;;;;;;30.20;49.50;;;;;;4990831;28;19946;-96
2022/07/03 09:33:35;;;;;;;;;;;30.20;49.20;;;;;;5008183;28;19945;-96
2022/07/03 09:36:01;;;;;;;;;;;30.20;53.10;;;;;;5009124;28;19943;-96
2022/07/03 09:38:26;;;;;;;;;;;30.30;49.30;;;;;;5006434;28;19958;-96
2022/07/03 09:40:53;;;;;;;;;;;30.40;49.60;;;;;;5008486;28;20314;-96
2022/07/03 09:43:22;;;;;;;;;;;30.50;51.60;;;;;;5009182;28;19942;-96
2022/07/03 09:45:58;;;;;;;;;;;30.50;48.30;;;;;;4990302;28;20018;-96
2022/07/03 09:48:31;;;;;;;;;;;30.60;50.80;;;;;;5009643;28;19983;-96
2022/07/03 09:51:09;;;;;;;;;;;30.70;51.30;;;;;;4991400;28;19951;-96
2022/07/03 09:53:44;;;;;;;;;;;30.90;51.60;;;;;;5008269;28;19952;-96
2022/07/03 09:56:10;;;;;;;;;;;31.00;50.90;;;;;;5008486;28;19956;-96
2022/07/03 09:58:36;;;;;;;;;;;31.10;50.70;;;;;;5008094;28;19977;-96
2022/07/03 10:01:20;;;;;;;;;;;31.10;49.50;;;;;;5006409;28;19946;-96
2022/07/03 10:03:48;;;;;;;;;;;31.20;50.00;;;;;;5005546;28;20012;-96
2022/07/03 10:06:14;;;;;;;;;;;31.10;48.50;;;;;;5005849;28;19953;-96
2022/07/03 10:08:42;;;;;;;;;;;31.10;49.10;;;;;;4986430;28;19950;-96
2022/07/03 10:11:08;;;;;;;;;;;31.20;48.90;;;;;;5006575;28;19939;-96
2022/07/03 10:13:36;;;;;;;;;;;31.20;47.60;;;;;;4988126;28;20004;-96
2022/07/03 10:16:02;;;;;;;;;;;31.20;47.10;;;;;;4989508;28;19958;-96
2022/07/03 10:18:30;;;;;;;;;;;31.20;47.50;;;;;;5002430;28;19965;-96
2022/07/03 10:20:58;;;;;;;;;;;31.30;46.40;;;;;;5004972;28;20034;-96
2022/07/03 10:23:24;;;;;;;;;;;31.40;49.50;;;;;;5005920;28;19943;-96
2022/07/03 10:25:49;;;;;;;;;;;31.60;49.00;;;;;;5005617;28;20025;-96
2022/07/03 10:28:16;;;;;;;;;;;31.60;48.80;;;;;;4978681;28;19948;-96
2022/07/03 10:30:48;;;;;;;;;;;31.70;48.20;;;;;;5003199;28;20008;-96
2022/07/03 10:33:14;;;;;;;;;;;31.80;48.80;;;;;;4985233;28;19951;-96
2022/07/03 10:35:41;;;;;;;;;;;32.00;46.20;;;;;;4984469;28;19943;-96
2022/07/03 10:38:35;;;;;;;;;;;32.10;48.70;;;;;;5003921;28;20292;-96
2022/07/03 10:46:35;;;;;;;;;;;32.40;44.70;;;;;;5001018;28;19952;-96
2022/07/03 10:49:04;;;;;;;;;;;32.40;46.90;;;;;;4983612;28;19942;-96
2022/07/03 10:51:53;;;;;;;;;;;32.30;45.80;;;;;;4982220;28;19951;-96
2022/07/03 10:54:24;;;;;;;;;;;32.30;46.60;;;;;;4968764;28;20332;-96
2022/07/03 10:57:10;;;;;;;;;;;32.50;47.60;;;;;;4997701;28;19941;-96
2022/07/03 10:59:36;;;;;;;;;;;32.60;45.50;;;;;;4996512;28;19978;-96
2022/07/03 11:02:20;;;;;;;;;;;32.80;45.50;;;;;;4998507;28;19943;-96
2022/07/03 11:04:58;;;;;;;;;;;33.00;46.40;;;;;;4998117;28;20429;-96
2022/07/03 11:07:27;;;;;;;;;;;33.10;47.20;;;;;;4998443;28;19996;-96
2022/07/03 11:10:12;;;;;;;;;;;33.10;45.60;;;;;;4998795;28;19950;-96
2022/07/03 11:12:56;;;;;;;;;;;33.20;44.70;;;;;;4981643;28;19949;-96
2022/07/03 11:15:36;;;;;;;;;;;33.20;46.70;;;;;;4998292;28;19944;-96
2022/07/03 11:18:05;;;;;;;;;;;33.30;45.70;;;;;;4999876;28;19937;-96
2022/07/03 11:20:31;;;;;;;;;;;33.40;45.10;;;;;;5001017;28;19947;-96
2022/07/03 11:23:15;;;;;;;;;;;33.50;45.60;;;;;;4998653;28;19937;-96
2022/07/03 11:25:44;;;;;;;;;;;33.60;43.50;;;;;;4998427;28;20403;-96
2022/07/03 11:28:28;;;;;;;;;;;33.60;44.80;;;;;;4981596;28;19952;-96
2022/07/03 11:31:19;;;;;;;;;;;33.60;43.50;;;;;;4999604;28;19951;-96
2022/07/03 11:33:47;;;;;;;;;;;33.70;44.20;;;;;;4999691;28;19947;-96
2022/07/03 11:36:16;;;;;;;;;;;33.70;42.10;;;;;;4999674;28;20369;-96
2022/07/03 11:38:45;;;;;;;;;;;33.60;45.00;;;;;;4999223;28;19963;-96
2022/07/03 11:41:11;;;;;;;;;;;33.30;43.00;;;;;;4999763;28;19946;-96
2022/07/03 11:43:37;;;;;;;;;;;33.50;43.00;;;;;;4998679;28;19996;-96
2022/07/03 11:46:04;;;;;;;;;;;33.70;45.00;;;;;;4981417;28;19954;-96
2022/07/03 11:48:30;;;;;;;;;;;33.80;44.00;;;;;;4997991;28;19962;-96
2022/07/03 11:51:03;;;;;;;;;;;33.80;44.00;;;;;;4995969;28;20329;-96
2022/07/03 11:53:29;;;;;;;;;;;34.20;41.20;;;;;;4997079;28;19948;-96
2022/07/03 11:56:03;;;;;;;;;;;34.60;42.20;;;;;;4996349;28;19949;-96
2022/07/03 11:58:44;;;;;;;;;;;34.80;40.10;;;;;;4978647;28;19983;-96
2022/07/03 12:01:23;;;;;;;;;;;35.10;39.20;;;;;;4996271;28;19955;-96
2022/07/03 12:04:02;;;;;;;;;;;35.20;41.10;;;;;;4995092;28;20613;-96
2022/07/03 12:06:32;;;;;;;;;;;35.20;39.30;;;;;;4995861;28;20011;-96
2022/07/03 12:08:58;;;;;;;;;;;35.30;38.90;;;;;;4995921;28;19964;-96
2022/07/03 12:11:23;;;;;;;;;;;35.50;39.70;;;;;;4995571;28;19950;-96
2022/07/03 12:13:52;;;;;;;;;;;35.80;40.50;;;;;;4978335;28;19943;-96
2022/07/03 12:16:18;;;;;;;;;;;35.90;39.50;;;;;;4995344;28;20387;-96
2022/07/03 12:18:48;;;;;;;;;;;36.10;38.20;;;;;;4995877;28;20020;-96
2022/07/03 12:21:14;;;;;;;;;;;36.40;38.40;;;;;;4978133;28;19953;-96
2022/07/03 12:23:53;;;;;;;;;;;36.60;38.50;;;;;;4995953;28;19949;-96
2022/07/03 12:26:29;;;;;;;;;;;36.90;36.40;;;;;;4996077;28;19962;-96
2022/07/03 12:28:56;;;;;;;;;;;37.20;36.20;;;;;;4979533;28;20303;-96
2022/07/03 12:31:22;;;;;;;;;;;37.60;34.90;;;;;;4995876;28;20017;-96
2022/07/03 12:33:47;;;;;;;;;;;37.80;34.00;;;;;;4996055;28;20419;-96
2022/07/03 12:36:13;;;;;;;;;;;38.10;33.10;;;;;;4995000;28;20371;-96
2022/07/03 12:38:40;;;;;;;;;;;38.20;33.60;;;;;;4996690;28;19960;-96
2022/07/03 12:41:07;;;;;;;;;;;38.40;33.80;;;;;;4996021;28;19945;-96
2022/07/03 12:43:39;;;;;;;;;;;38.80;33.00;;;;;;4995910;28;20008;-96
2022/07/03 12:46:18;;;;;;;;;;;38.70;33.10;;;;;;4995638;28;19992;-96
2022/07/03 12:48:47;;;;;;;;;;;38.10;33.60;;;;;;4979450;28;19957;-96
2022/07/03 12:51:12;;;;;;;;;;;37.80;34.30;;;;;;4999817;28;19944;-96
2022/07/03 12:53:38;;;;;;;;;;;38.00;35.90;;;;;;4982267;28;19944;-96
2022/07/03 12:56:05;;;;;;;;;;;37.90;33.90;;;;;;4997753;28;20033;-96
2022/07/03 13:01:25;;;;;;;;;;;38.60;34.70;;;;;;4998268;28;19959;-96
2022/07/03 13:03:52;;;;;;;;;;;39.30;32.90;;;;;;4999814;28;19944;-96
2022/07/03 13:06:19;;;;;;;;;;;40.00;32.10;;;;;;4981895;28;19948;-96
2022/07/03 13:09:00;;;;;;;;;;;40.70;31.10;;;;;;4999967;28;19960;-96
2022/07/03 13:11:27;;;;;;;;;;;41.00;29.70;;;;;;4986002;28;19950;-96
2022/07/03 13:13:55;;;;;;;;;;;41.80;28.50;;;;;;4984979;28;20034;-96
2022/07/03 13:16:24;;;;;;;;;;;42.10;28.00;;;;;;4983753;28;19946;-96
2022/07/03 13:18:59;;;;;;;;;;;42.00;27.70;;;;;;5005779;28;19966;-96
2022/07/03 13:21:25;;;;;;;;;;;42.40;28.60;;;;;;5003656;28;19978;-96
2022/07/03 13:23:51;;;;;;;;;;;43.20;28.50;;;;;;5000234;28;19937;-96
2022/07/03 13:26:16;;;;;;;;;;;42.80;26.20;;;;;;5002745;28;20381;-96
2022/07/03 13:28:42;;;;;;;;;;;43.00;27.40;;;;;;5004747;28;19940;-96
2022/07/03 13:31:08;;;;;;;;;;;43.40;25.00;;;;;;5005355;28;19944;-96
2022/07/03 13:33:33;;;;;;;;;;;43.60;25.20;;;;;;5007081;28;19943;-96
2022/07/03 13:35:59;;;;;;;;;;;43.80;24.20;;;;;;4992036;28;19946;-96
2022/07/03 13:38:25;;;;;;;;;;;44.10;24.80;;;;;;4993918;28;19969;-96
2022/07/03 13:40:51;;;;;;;;;;;44.40;23.80;;;;;;5011694;28;19937;-96
2022/07/03 13:43:17;;;;;;;;;;;45.10;22.60;;;;;;5011326;28;20003;-96
2022/07/03 13:45:43;;;;;;;;;;;45.40;22.40;;;;;;4993508;28;19959;-96
2022/07/03 13:48:09;;;;;;;;;;;45.80;22.20;;;;;;5011146;28;19968;-96
2022/07/03 13:50:34;;;;;;;;;;;46.20;22.50;;;;;;4995727;28;19938;-96
2022/07/03 13:53:01;;;;;;;;;;;46.60;21.80;;;;;;5011985;28;19943;-96
2022/07/03 13:55:26;;;;;;;;;;;46.10;21.70;;;;;;5008753;28;19937;-97
2022/07/03 13:57:52;;;;;;;;;;;44.60;21.70;;;;;;5010041;28;19982;-96
2022/07/03 14:00:18;;;;;;;;;;;44.30;23.20;;;;;;4992609;28;20067;-96
2022/07/03 14:02:44;;;;;;;;;;;43.60;23.80;;;;;;5006398;28;19943;-96
2022/07/03 14:05:10;;;;;;;;;;;43.60;25.30;;;;;;4988059;28;19947;-96
2022/07/03 14:07:35;;;;;;;;;;;43.60;24.70;;;;;;5005216;28;19988;-96
2022/07/03 14:10:04;;;;;;;;;;;44.20;24.60;;;;;;4991598;28;19942;-96
2022/07/03 14:12:29;;;;;;;;;;;45.20;22.50;;;;;;5011609;28;20009;-96
2022/07/03 14:14:56;;;;;;;;;;;46.00;21.20;;;;;;4996392;28;19939;-96
2022/07/03 14:17:27;;;;;;;;;;;46.20;22.40;;;;;;4998287;28;19982;-97
2022/07/03 14:19:54;;;;;;;;;;;46.60;21.20;;;;;;5016307;28;19946;-96
2022/07/03 14:22:20;;;;;;;;;;;46.60;22.10;;;;;;4998421;28;20016;-96
2022/07/03 14:24:45;;;;;;;;;;;47.30;21.10;;;;;;5012451;28;19941;-96
2022/07/03 14:32:40;;;;;;;;;;;48.00;21.80;;;;;;5014239;28;19952;-96
2022/07/03 14:35:06;;;;;;;;;;;47.60;22.80;;;;;;4993295;28;19940;-96
2022/07/03 14:37:32;;;;;;;;;;;48.10;22.20;;;;;;4992381;28;19944;-96
2022/07/03 14:39:58;;;;;;;;;;;47.90;23.90;;;;;;4992714;28;19962;-96
2022/07/03 14:42:24;;;;;;;;;;;48.10;21.20;;;;;;4991362;28;19941;-97
2022/07/03 14:44:49;;;;;;;;;;;48.10;22.00;;;;;;5009244;28;19941;-96